sensor_id;sensor_type;location;lat;lon;timestamp;temperature;humidity
22503;DHT22;11418;48.118;9.992;2023-04-23T00:03:21;11.40;99.90
22503;DHT22;11418;48.118;9.992;2023-04-23T00:07:23;11.20;99.90
22503;DHT22;11418;48.118;9.992;2023-04-23T00:11:23;11.20;99.90
22503;DHT22;11418;48.118;9.992;2023-04-23T00:15:24;11.10;99.90
22503;DHT22;11418;48.118;9.992;2023-04-23T00:19:25;11.10;99.90
22503;DHT22;11418;48.118;9.992;2023-04-23T00:23:26;11.10;99.90
22503;DHT22;11418;48.118;9.992;2023-04-23T00:27:27;11.00;99.90
22503;DHT22;11418;48.118;9.992;2023-04-23T00:31:27;11.00;99.90
22503;DHT22;11418;48.118;9.992;2023-04-23T00:35:28;11.00;99.90
22503;DHT22;11418;48.118;9.992;2023-04-23T00:39:28;11.00;99.90
22503;DHT22;11418;48.118;9.992;2023-04-23T00:43:29;10.90;99.90
22503;DHT22;11418;48.118;9.992;2023-04-23T00:47:30;10.80;99.90
22503;DHT22;11418;48.118;9.992;2023-04-23T00:51:31;10.70;99.90
22503;DHT22;11418;48.118;9.992;2023-04-23T00:55:32;10.70;99.90
22503;DHT22;11418;48.118;9.992;2023-04-23T00:59:33;10.60;99.90
22503;DHT22;11418;48.118;9.992;2023-04-23T01:03:35;10.60;99.90
22503;DHT22;11418;48.118;9.992;2023-04-23T01:07:36;10.60;99.90
22503;DHT22;11418;48.118;9.992;2023-04-23T01:11:37;10.60;99.90
22503;DHT22;11418;48.118;9.992;2023-04-23T01:15:38;10.50;99.90
22503;DHT22;11418;48.118;9.992;2023-04-23T01:19:38;10.60;99.90
22503;DHT22;11418;48.118;9.992;2023-04-23T01:23:39;10.60;99.90
22503;DHT22;11418;48.118;9.992;2023-04-23T01:27:40;10.60;99.90
22503;DHT22;11418;48.118;9.992;2023-04-23T01:31:40;10.80;99.90
22503;DHT22;11418;48.118;9.992;2023-04-23T01:35:41;10.90;99.90
22503;DHT22;11418;48.118;9.992;2023-04-23T01:39:42;10.80;99.90
22503;DHT22;11418;48.118;9.992;2023-04-23T01:43:42;10.90;99.90
22503;DHT22;11418;48.118;9.992;2023-04-23T01:47:43;10.80;99.90
22503;DHT22;11418;48.118;9.992;2023-04-23T01:51:44;10.70;99.90
22503;DHT22;11418;48.118;9.992;2023-04-23T01:55:46;10.70;99.90
22503;DHT22;11418;48.118;9.992;2023-04-23T01:59:46;11.00;99.90
22503;DHT22;11418;48.118;9.992;2023-04-23T02:03:50;11.10;99.90
22503;DHT22;11418;48.118;9.992;2023-04-23T02:07:50;11.00;99.90
22503;DHT22;11418;48.118;9.992;2023-04-23T02:11:51;10.90;99.90
22503;DHT22;11418;48.118;9.992;2023-04-23T02:15:52;10.80;99.90
22503;DHT22;11418;48.118;9.992;2023-04-23T02:19:52;10.70;99.90
22503;DHT22;11418;48.118;9.992;2023-04-23T02:23:55;10.70;99.90
22503;DHT22;11418;48.118;9.992;2023-04-23T02:27:55;10.80;99.90
22503;DHT22;11418;48.118;9.992;2023-04-23T02:31:56;10.90;99.90
22503;DHT22;11418;48.118;9.992;2023-04-23T02:35:57;10.80;99.90
22503;DHT22;11418;48.118;9.992;2023-04-23T02:39:57;10.90;99.90
22503;DHT22;11418;48.118;9.992;2023-04-23T02:43:58;10.80;99.90
22503;DHT22;11418;48.118;9.992;2023-04-23T02:47:58;10.90;99.90
22503;DHT22;11418;48.118;9.992;2023-04-23T02:51:59;10.90;99.90
22503;DHT22;11418;48.118;9.992;2023-04-23T02:55:59;10.80;99.90
22503;DHT22;11418;48.118;9.992;2023-04-23T03:00:01;10.60;99.90
22503;DHT22;11418;48.118;9.992;2023-04-23T03:04:01;10.60;99.90
22503;DHT22;11418;48.118;9.992;2023-04-23T03:08:02;10.50;99.90
22503;DHT22;11418;48.118;9.992;2023-04-23T03:12:03;10.70;99.90
22503;DHT22;11418;48.118;9.992;2023-04-23T03:16:03;10.70;99.90
22503;DHT22;11418;48.118;9.992;2023-04-23T03:20:04;10.60;99.90
22503;DHT22;11418;48.118;9.992;2023-04-23T03:24:05;10.50;99.90
22503;DHT22;11418;48.118;9.992;2023-04-23T03:28:05;10.60;99.90
22503;DHT22;11418;48.118;9.992;2023-04-23T03:32:06;10.60;99.90
22503;DHT22;11418;48.118;9.992;2023-04-23T03:36:06;10.70;99.90
22503;DHT22;11418;48.118;9.992;2023-04-23T03:40:07;10.70;99.90
22503;DHT22;11418;48.118;9.992;2023-04-23T03:44:08;10.50;99.90
22503;DHT22;11418;48.118;9.992;2023-04-23T03:48:08;10.50;99.90
22503;DHT22;11418;48.118;9.992;2023-04-23T03:52:09;10.50;99.90
22503;DHT22;11418;48.118;9.992;2023-04-23T03:56:10;10.40;99.90
22503;DHT22;11418;48.118;9.992;2023-04-23T04:00:10;10.30;99.90
22503;DHT22;11418;48.118;9.992;2023-04-23T04:04:11;10.30;99.90
22503;DHT22;11418;48.118;9.992;2023-04-23T04:08:12;10.30;99.90
22503;DHT22;11418;48.118;9.992;2023-04-23T04:12:12;10.40;99.90
22503;DHT22;11418;48.118;9.992;2023-04-23T04:16:13;10.30;99.90
22503;DHT22;11418;48.118;9.992;2023-04-23T04:20:13;10.30;99.90
22503;DHT22;11418;48.118;9.992;2023-04-23T04:24:14;10.30;99.90
22503;DHT22;11418;48.118;9.992;2023-04-23T04:28:14;10.20;99.90
22503;DHT22;11418;48.118;9.992;2023-04-23T04:32:15;10.20;99.90
22503;DHT22;11418;48.118;9.992;2023-04-23T04:36:15;10.20;99.90
22503;DHT22;11418;48.118;9.992;2023-04-23T04:40:17;10.10;99.90
22503;DHT22;11418;48.118;9.992;2023-04-23T04:44:18;10.20;99.90
22503;DHT22;11418;48.118;9.992;2023-04-23T04:48:18;10.10;99.90
22503;DHT22;11418;48.118;9.992;2023-04-23T04:52:19;10.10;99.90
22503;DHT22;11418;48.118;9.992;2023-04-23T04:56:19;10.20;99.90
22503;DHT22;11418;48.118;9.992;2023-04-23T05:04:21;10.30;99.90
22503;DHT22;11418;48.118;9.992;2023-04-23T05:08:22;10.40;99.90
22503;DHT22;11418;48.118;9.992;2023-04-23T05:12:22;10.40;99.90
22503;DHT22;11418;48.118;9.992;2023-04-23T05:16:23;10.60;99.90
22503;DHT22;11418;48.118;9.992;2023-04-23T05:20:23;10.70;99.90
22503;DHT22;11418;48.118;9.992;2023-04-23T05:24:24;10.80;99.90
22503;DHT22;11418;48.118;9.992;2023-04-23T05:28:25;10.80;99.90
22503;DHT22;11418;48.118;9.992;2023-04-23T05:32:26;10.90;99.90
22503;DHT22;11418;48.118;9.992;2023-04-23T05:36:26;11.30;99.90
22503;DHT22;11418;48.118;9.992;2023-04-23T05:40:26;10.90;99.90
22503;DHT22;11418;48.118;9.992;2023-04-23T05:44:27;10.90;99.90
22503;DHT22;11418;48.118;9.992;2023-04-23T05:48:28;10.80;99.90
22503;DHT22;11418;48.118;9.992;2023-04-23T05:52:28;10.80;99.90
22503;DHT22;11418;48.118;9.992;2023-04-23T05:56:34;10.80;99.90
22503;DHT22;11418;48.118;9.992;2023-04-23T06:00:35;11.00;99.90
22503;DHT22;11418;48.118;9.992;2023-04-23T06:04:36;10.60;99.90
22503;DHT22;11418;48.118;9.992;2023-04-23T06:08:37;11.20;99.90
22503;DHT22;11418;48.118;9.992;2023-04-23T06:12:38;11.20;99.90
22503;DHT22;11418;48.118;9.992;2023-04-23T06:16:39;11.30;99.90
22503;DHT22;11418;48.118;9.992;2023-04-23T06:20:39;11.40;99.90
22503;DHT22;11418;48.118;9.992;2023-04-23T06:24:40;11.50;99.90
22503;DHT22;11418;48.118;9.992;2023-04-23T06:28:41;11.70;99.90
22503;DHT22;11418;48.118;9.992;2023-04-23T06:32:41;11.90;99.90
22503;DHT22;11418;48.118;9.992;2023-04-23T06:36:41;12.20;99.90
22503;DHT22;11418;48.118;9.992;2023-04-23T06:40:43;12.60;99.90
22503;DHT22;11418;48.118;9.992;2023-04-23T06:44:43;12.70;99.90
22503;DHT22;11418;48.118;9.992;2023-04-23T06:48:46;13.00;99.90
22503;DHT22;11418;48.118;9.992;2023-04-23T06:52:46;13.10;99.90
22503;DHT22;11418;48.118;9.992;2023-04-23T06:56:46;13.30;99.90
22503;DHT22;11418;48.118;9.992;2023-04-23T07:00:47;13.40;99.90
22503;DHT22;11418;48.118;9.992;2023-04-23T07:04:47;13.30;99.90
22503;DHT22;11418;48.118;9.992;2023-04-23T07:08:48;13.20;99.90
22503;DHT22;11418;48.118;9.992;2023-04-23T07:12:48;12.90;99.90
22503;DHT22;11418;48.118;9.992;2023-04-23T07:16:49;13.00;99.90
22503;DHT22;11418;48.118;9.992;2023-04-23T07:20:50;13.10;99.90
22503;DHT22;11418;48.118;9.992;2023-04-23T07:24:52;13.50;99.90
22503;DHT22;11418;48.118;9.992;2023-04-23T07:28:52;13.80;99.90
22503;DHT22;11418;48.118;9.992;2023-04-23T07:32:53;12.70;99.90
22503;DHT22;11418;48.118;9.992;2023-04-23T07:36:54;14.70;99.90
22503;DHT22;11418;48.118;9.992;2023-04-23T07:40:56;14.10;99.90
22503;DHT22;11418;48.118;9.992;2023-04-23T07:44:56;14.40;99.90
22503;DHT22;11418;48.118;9.992;2023-04-23T07:48:57;14.90;99.90
22503;DHT22;11418;48.118;9.992;2023-04-23T07:52:58;15.40;99.90
22503;DHT22;11418;48.118;9.992;2023-04-23T07:56:58;14.70;99.90
22503;DHT22;11418;48.118;9.992;2023-04-23T08:00:58;15.80;99.90
22503;DHT22;11418;48.118;9.992;2023-04-23T08:04:59;15.70;99.90
22503;DHT22;11418;48.118;9.992;2023-04-23T08:09:00;15.70;99.90
22503;DHT22;11418;48.118;9.992;2023-04-23T08:13:05;16.30;99.90
22503;DHT22;11418;48.118;9.992;2023-04-23T08:17:06;16.50;99.90
22503;DHT22;11418;48.118;9.992;2023-04-23T08:21:06;17.30;99.90
22503;DHT22;11418;48.118;9.992;2023-04-23T08:25:07;16.90;99.90
22503;DHT22;11418;48.118;9.992;2023-04-23T08:29:08;17.10;99.90
22503;DHT22;11418;48.118;9.992;2023-04-23T08:33:08;17.50;99.90
22503;DHT22;11418;48.118;9.992;2023-04-23T08:37:08;17.70;99.90
22503;DHT22;11418;48.118;9.992;2023-04-23T08:41:10;17.50;99.90
22503;DHT22;11418;48.118;9.992;2023-04-23T08:45:12;17.60;99.90
22503;DHT22;11418;48.118;9.992;2023-04-23T08:49:16;17.90;99.90
22503;DHT22;11418;48.118;9.992;2023-04-23T08:53:18;17.20;99.90
22503;DHT22;11418;48.118;9.992;2023-04-23T08:57:19;17.50;99.90
22503;DHT22;11418;48.118;9.992;2023-04-23T09:01:19;17.60;99.90
22503;DHT22;11418;48.118;9.992;2023-04-23T09:05:20;17.30;99.90
22503;DHT22;11418;48.118;9.992;2023-04-23T09:09:20;17.20;99.90
22503;DHT22;11418;48.118;9.992;2023-04-23T09:13:22;17.40;99.90
22503;DHT22;11418;48.118;9.992;2023-04-23T09:17:24;17.80;99.90
22503;DHT22;11418;48.118;9.992;2023-04-23T09:21:27;18.40;99.90
22503;DHT22;11418;48.118;9.992;2023-04-23T09:25:27;19.10;99.90
22503;DHT22;11418;48.118;9.992;2023-04-23T09:29:28;19.30;99.90
22503;DHT22;11418;48.118;9.992;2023-04-23T09:33:30;19.60;99.90
22503;DHT22;11418;48.118;9.992;2023-04-23T09:37:32;19.60;99.90
22503;DHT22;11418;48.118;9.992;2023-04-23T09:41:32;19.40;99.90
22503;DHT22;11418;48.118;9.992;2023-04-23T09:45:33;19.60;99.90
22503;DHT22;11418;48.118;9.992;2023-04-23T09:49:44;19.80;99.90
22503;DHT22;11418;48.118;9.992;2023-04-23T09:53:46;19.80;99.90
22503;DHT22;11418;48.118;9.992;2023-04-23T09:57:46;20.50;99.90
22503;DHT22;11418;48.118;9.992;2023-04-23T10:01:47;20.40;99.90
22503;DHT22;11418;48.118;9.992;2023-04-23T10:05:47;20.50;99.90
22503;DHT22;11418;48.118;9.992;2023-04-23T10:09:47;21.00;99.90
22503;DHT22;11418;48.118;9.992;2023-04-23T10:13:48;21.10;99.90
22503;DHT22;11418;48.118;9.992;2023-04-23T10:17:48;21.30;99.90
22503;DHT22;11418;48.118;9.992;2023-04-23T10:21:54;20.90;99.90
22503;DHT22;11418;48.118;9.992;2023-04-23T10:25:56;20.30;99.90
22503;DHT22;11418;48.118;9.992;2023-04-23T10:29:58;20.50;99.90
22503;DHT22;11418;48.118;9.992;2023-04-23T10:33:59;20.50;99.90
22503;DHT22;11418;48.118;9.992;2023-04-23T10:38:01;20.80;99.90
22503;DHT22;11418;48.118;9.992;2023-04-23T10:42:01;20.70;99.90
22503;DHT22;11418;48.118;9.992;2023-04-23T10:46:03;20.70;99.90
22503;DHT22;11418;48.118;9.992;2023-04-23T10:54:36;22.40;99.90
22503;DHT22;11418;48.118;9.992;2023-04-23T10:58:46;23.20;99.90
22503;DHT22;11418;48.118;9.992;2023-04-23T11:02:47;23.00;99.90
22503;DHT22;11418;48.118;9.992;2023-04-23T11:06:51;23.30;99.90
22503;DHT22;11418;48.118;9.992;2023-04-23T11:10:55;23.90;99.90
22503;DHT22;11418;48.118;9.992;2023-04-23T11:14:57;23.10;99.90
22503;DHT22;11418;48.118;9.992;2023-04-23T11:19:10;23.40;99.90
22503;DHT22;11418;48.118;9.992;2023-04-23T11:23:28;24.30;99.90
22503;DHT22;11418;48.118;9.992;2023-04-23T11:27:29;23.70;99.80
22503;DHT22;11418;48.118;9.992;2023-04-23T11:31:29;22.60;99.90
22503;DHT22;11418;48.118;9.992;2023-04-23T11:35:30;22.30;99.90
22503;DHT22;11418;48.118;9.992;2023-04-23T11:39:39;22.70;99.90
22503;DHT22;11418;48.118;9.992;2023-04-23T11:43:41;22.90;99.90
22503;DHT22;11418;48.118;9.992;2023-04-23T11:47:42;23.10;99.90
22503;DHT22;11418;48.118;9.992;2023-04-23T11:51:44;23.30;99.90
22503;DHT22;11418;48.118;9.992;2023-04-23T11:55:47;23.20;98.40
22503;DHT22;11418;48.118;9.992;2023-04-23T11:59:47;22.70;99.90
22503;DHT22;11418;48.118;9.992;2023-04-23T12:03:48;22.60;99.90
22503;DHT22;11418;48.118;9.992;2023-04-23T12:07:49;22.80;99.90
22503;DHT22;11418;48.118;9.992;2023-04-23T12:11:50;23.60;97.70
22503;DHT22;11418;48.118;9.992;2023-04-23T12:15:52;23.60;99.90
22503;DHT22;11418;48.118;9.992;2023-04-23T12:19:55;24.70;96.80
22503;DHT22;11418;48.118;9.992;2023-04-23T12:23:55;26.60;97.30
22503;DHT22;11418;48.118;9.992;2023-04-23T12:28:00;26.60;93.20
22503;DHT22;11418;48.118;9.992;2023-04-23T12:32:01;25.00;95.10
22503;DHT22;11418;48.118;9.992;2023-04-23T12:36:02;24.30;96.10
22503;DHT22;11418;48.118;9.992;2023-04-23T12:40:02;23.80;99.70
22503;DHT22;11418;48.118;9.992;2023-04-23T12:44:06;23.60;98.20
22503;DHT22;11418;48.118;9.992;2023-04-23T12:48:06;25.10;99.20
22503;DHT22;11418;48.118;9.992;2023-04-23T12:52:07;26.40;92.50
22503;DHT22;11418;48.118;9.992;2023-04-23T12:56:07;26.60;91.00
22503;DHT22;11418;48.118;9.992;2023-04-23T13:00:08;25.90;93.00
22503;DHT22;11418;48.118;9.992;2023-04-23T13:04:09;26.90;91.10
22503;DHT22;11418;48.118;9.992;2023-04-23T13:08:10;27.00;91.10
22503;DHT22;11418;48.118;9.992;2023-04-23T13:12:10;27.90;86.70
22503;DHT22;11418;48.118;9.992;2023-04-23T13:16:11;27.40;86.70
22503;DHT22;11418;48.118;9.992;2023-04-23T13:20:12;27.00;80.90
22503;DHT22;11418;48.118;9.992;2023-04-23T13:24:12;25.40;90.10
22503;DHT22;11418;48.118;9.992;2023-04-23T13:28:13;25.70;86.40
22503;DHT22;11418;48.118;9.992;2023-04-23T13:32:14;25.40;90.60
22503;DHT22;11418;48.118;9.992;2023-04-23T13:36:15;26.30;87.40
22503;DHT22;11418;48.118;9.992;2023-04-23T13:40:16;26.10;84.60
22503;DHT22;11418;48.118;9.992;2023-04-23T13:44:16;24.30;94.70
22503;DHT22;11418;48.118;9.992;2023-04-23T13:48:17;25.90;92.60
22503;DHT22;11418;48.118;9.992;2023-04-23T13:52:17;26.90;89.60
22503;DHT22;11418;48.118;9.992;2023-04-23T13:56:18;27.10;86.60
22503;DHT22;11418;48.118;9.992;2023-04-23T14:00:18;27.30;85.30
22503;DHT22;11418;48.118;9.992;2023-04-23T14:04:19;27.10;85.50
22503;DHT22;11418;48.118;9.992;2023-04-23T14:08:20;27.90;80.90
22503;DHT22;11418;48.118;9.992;2023-04-23T14:12:20;28.10;77.50
22503;DHT22;11418;48.118;9.992;2023-04-23T14:16:23;27.30;79.10
22503;DHT22;11418;48.118;9.992;2023-04-23T14:20:23;27.40;87.70
22503;DHT22;11418;48.118;9.992;2023-04-23T14:24:27;28.60;73.80
22503;DHT22;11418;48.118;9.992;2023-04-23T14:28:33;29.10;73.70
22503;DHT22;11418;48.118;9.992;2023-04-23T14:32:33;30.50;68.40
22503;DHT22;11418;48.118;9.992;2023-04-23T14:36:34;30.80;62.20
22503;DHT22;11418;48.118;9.992;2023-04-23T14:40:34;28.70;73.40
22503;DHT22;11418;48.118;9.992;2023-04-23T14:44:35;28.20;69.80
22503;DHT22;11418;48.118;9.992;2023-04-23T14:48:35;28.90;70.30
22503;DHT22;11418;48.118;9.992;2023-04-23T14:52:36;27.20;74.40
22503;DHT22;11418;48.118;9.992;2023-04-23T14:56:36;25.70;79.90
22503;DHT22;11418;48.118;9.992;2023-04-23T15:00:37;25.00;80.40
22503;DHT22;11418;48.118;9.992;2023-04-23T15:04:37;24.80;84.70
22503;DHT22;11418;48.118;9.992;2023-04-23T15:08:38;24.70;81.50
22503;DHT22;11418;48.118;9.992;2023-04-23T15:16:39;24.90;82.30
22503;DHT22;11418;48.118;9.992;2023-04-23T15:20:40;25.90;79.30
22503;DHT22;11418;48.118;9.992;2023-04-23T15:24:40;25.80;77.00
22503;DHT22;11418;48.118;9.992;2023-04-23T15:28:41;25.10;77.30
22503;DHT22;11418;48.118;9.992;2023-04-23T15:32:41;24.40;79.90
22503;DHT22;11418;48.118;9.992;2023-04-23T15:36:42;23.50;83.20
22503;DHT22;11418;48.118;9.992;2023-04-23T15:40:49;22.30;87.20
22503;DHT22;11418;48.118;9.992;2023-04-23T15:44:49;21.30;91.00
22503;DHT22;11418;48.118;9.992;2023-04-23T15:48:50;20.60;91.30
22503;DHT22;11418;48.118;9.992;2023-04-23T15:52:50;20.30;93.60
22503;DHT22;11418;48.118;9.992;2023-04-23T15:56:51;20.20;95.30
22503;DHT22;11418;48.118;9.992;2023-04-23T16:00:51;19.80;96.40
22503;DHT22;11418;48.118;9.992;2023-04-23T16:04:52;19.40;98.00
22503;DHT22;11418;48.118;9.992;2023-04-23T16:08:52;19.10;98.80
22503;DHT22;11418;48.118;9.992;2023-04-23T16:12:53;18.60;99.90
22503;DHT22;11418;48.118;9.992;2023-04-23T16:16:54;18.20;99.90
22503;DHT22;11418;48.118;9.992;2023-04-23T16:20:54;17.70;99.90
22503;DHT22;11418;48.118;9.992;2023-04-23T16:24:55;16.00;99.90
22503;DHT22;11418;48.118;9.992;2023-04-23T16:28:55;15.30;99.90
22503;DHT22;11418;48.118;9.992;2023-04-23T16:32:56;15.10;99.90
22503;DHT22;11418;48.118;9.992;2023-04-23T16:36:56;15.20;99.90
22503;DHT22;11418;48.118;9.992;2023-04-23T16:40:57;15.30;99.90
22503;DHT22;11418;48.118;9.992;2023-04-23T16:44:57;15.20;99.90
22503;DHT22;11418;48.118;9.992;2023-04-23T16:48:58;15.20;99.90
22503;DHT22;11418;48.118;9.992;2023-04-23T16:52:58;15.10;99.90
22503;DHT22;11418;48.118;9.992;2023-04-23T16:56:59;15.00;99.90
22503;DHT22;11418;48.118;9.992;2023-04-23T17:01:00;14.80;99.90
22503;DHT22;11418;48.118;9.992;2023-04-23T17:05:01;14.80;99.90
22503;DHT22;11418;48.118;9.992;2023-04-23T17:09:01;14.80;99.90
22503;DHT22;11418;48.118;9.992;2023-04-23T17:13:04;14.90;99.90
22503;DHT22;11418;48.118;9.992;2023-04-23T17:17:04;14.90;99.90
22503;DHT22;11418;48.118;9.992;2023-04-23T17:21:05;14.90;99.90
22503;DHT22;11418;48.118;9.992;2023-04-23T17:25:05;14.90;99.90
22503;DHT22;11418;48.118;9.992;2023-04-23T17:29:06;14.70;99.90
22503;DHT22;11418;48.118;9.992;2023-04-23T17:33:06;14.70;99.90
22503;DHT22;11418;48.118;9.992;2023-04-23T17:37:07;14.60;99.90
22503;DHT22;11418;48.118;9.992;2023-04-23T17:41:07;14.60;99.90
22503;DHT22;11418;48.118;9.992;2023-04-23T17:45:08;14.50;99.90
22503;DHT22;11418;48.118;9.992;2023-04-23T17:49:09;14.30;99.90
22503;DHT22;11418;48.118;9.992;2023-04-23T17:53:09;14.20;99.90
22503;DHT22;11418;48.118;9.992;2023-04-23T17:57:10;13.90;99.90
22503;DHT22;11418;48.118;9.992;2023-04-23T18:01:10;13.60;99.90
22503;DHT22;11418;48.118;9.992;2023-04-23T18:05:12;13.60;99.90
22503;DHT22;11418;48.118;9.992;2023-04-23T18:09:13;13.50;99.90
22503;DHT22;11418;48.118;9.992;2023-04-23T18:13:14;13.50;99.90
22503;DHT22;11418;48.118;9.992;2023-04-23T18:17:14;13.70;99.90
22503;DHT22;11418;48.118;9.992;2023-04-23T18:21:16;13.50;99.90
22503;DHT22;11418;48.118;9.992;2023-04-23T18:25:17;13.30;99.90
22503;DHT22;11418;48.118;9.992;2023-04-23T18:29:18;13.10;99.90
22503;DHT22;11418;48.118;9.992;2023-04-23T18:37:41;12.80;99.90
22503;DHT22;11418;48.118;9.992;2023-04-23T18:41:42;12.80;99.90
22503;DHT22;11418;48.118;9.992;2023-04-23T18:45:42;12.90;99.90
22503;DHT22;11418;48.118;9.992;2023-04-23T18:49:44;12.90;99.90
22503;DHT22;11418;48.118;9.992;2023-04-23T18:53:45;12.80;99.90
22503;DHT22;11418;48.118;9.992;2023-04-23T18:57:45;13.00;99.90
22503;DHT22;11418;48.118;9.992;2023-04-23T19:01:46;12.90;99.90
22503;DHT22;11418;48.118;9.992;2023-04-23T19:05:47;12.80;99.90
22503;DHT22;11418;48.118;9.992;2023-04-23T19:09:47;12.80;99.90
22503;DHT22;11418;48.118;9.992;2023-04-23T19:13:48;12.60;99.90
22503;DHT22;11418;48.118;9.992;2023-04-23T19:17:48;12.50;99.90
22503;DHT22;11418;48.118;9.992;2023-04-23T19:21:49;12.60;99.90
22503;DHT22;11418;48.118;9.992;2023-04-23T19:25:50;12.50;99.90
22503;DHT22;11418;48.118;9.992;2023-04-23T19:29:51;12.30;99.90
22503;DHT22;11418;48.118;9.992;2023-04-23T19:33:53;12.30;99.90
22503;DHT22;11418;48.118;9.992;2023-04-23T19:37:54;12.60;99.90
22503;DHT22;11418;48.118;9.992;2023-04-23T19:41:54;12.50;99.90
22503;DHT22;11418;48.118;9.992;2023-04-23T19:45:55;12.60;99.90
22503;DHT22;11418;48.118;9.992;2023-04-23T19:49:55;12.70;99.90
22503;DHT22;11418;48.118;9.992;2023-04-23T19:53:56;12.70;99.90
22503;DHT22;11418;48.118;9.992;2023-04-23T19:57:57;12.60;99.90
22503;DHT22;11418;48.118;9.992;2023-04-23T20:01:58;12.30;99.90
22503;DHT22;11418;48.118;9.992;2023-04-23T20:05:58;12.00;99.90
22503;DHT22;11418;48.118;9.992;2023-04-23T20:09:58;11.90;99.90
22503;DHT22;11418;48.118;9.992;2023-04-23T20:14:00;11.80;99.90
22503;DHT22;11418;48.118;9.992;2023-04-23T20:18:00;11.60;99.90
22503;DHT22;11418;48.118;9.992;2023-04-23T20:22:01;11.40;99.90
22503;DHT22;11418;48.118;9.992;2023-04-23T20:26:01;11.20;99.90
22503;DHT22;11418;48.118;9.992;2023-04-23T20:30:02;11.20;99.90
22503;DHT22;11418;48.118;9.992;2023-04-23T20:34:03;11.10;99.90
22503;DHT22;11418;48.118;9.992;2023-04-23T20:38:03;11.00;99.90
22503;DHT22;11418;48.118;9.992;2023-04-23T20:42:04;11.00;99.90
22503;DHT22;11418;48.118;9.992;2023-04-23T20:46:05;11.00;99.90
22503;DHT22;11418;48.118;9.992;2023-04-23T20:50:06;10.90;99.90
22503;DHT22;11418;48.118;9.992;2023-04-23T20:54:07;10.90;99.90
22503;DHT22;11418;48.118;9.992;2023-04-23T20:58:08;10.90;99.90
22503;DHT22;11418;48.118;9.992;2023-04-23T21:02:08;10.80;99.90
22503;DHT22;11418;48.118;9.992;2023-04-23T21:06:11;10.80;99.90
22503;DHT22;11418;48.118;9.992;2023-04-23T21:10:12;10.70;99.90
22503;DHT22;11418;48.118;9.992;2023-04-23T21:14:12;10.80;99.90
22503;DHT22;11418;48.118;9.992;2023-04-23T21:18:13;10.80;99.90
22503;DHT22;11418;48.118;9.992;2023-04-23T21:22:13;10.70;99.90
22503;DHT22;11418;48.118;9.992;2023-04-23T21:26:14;10.70;99.90
22503;DHT22;11418;48.118;9.992;2023-04-23T21:30:21;10.40;99.90
22503;DHT22;11418;48.118;9.992;2023-04-23T21:34:23;10.40;99.90
22503;DHT22;11418;48.118;9.992;2023-04-23T21:38:24;10.40;99.90
22503;DHT22;11418;48.118;9.992;2023-04-23T21:42:24;10.40;99.90
22503;DHT22;11418;48.118;9.992;2023-04-23T21:46:25;10.30;99.90
22503;DHT22;11418;48.118;9.992;2023-04-23T21:50:26;10.30;99.90
22503;DHT22;11418;48.118;9.992;2023-04-23T21:54:27;10.10;99.90
22503;DHT22;11418;48.118;9.992;2023-04-23T21:58:28;10.00;99.90
22503;DHT22;11418;48.118;9.992;2023-04-23T22:02:30;10.00;99.90
22503;DHT22;11418;48.118;9.992;2023-04-23T22:06:31;10.10;99.90
22503;DHT22;11418;48.118;9.992;2023-04-23T22:10:33;10.10;99.90
22503;DHT22;11418;48.118;9.992;2023-04-23T22:14:34;10.10;99.90
22503;DHT22;11418;48.118;9.992;2023-04-23T22:18:34;10.00;99.90
22503;DHT22;11418;48.118;9.992;2023-04-23T22:22:36;10.00;99.90
22503;DHT22;11418;48.118;9.992;2023-04-23T22:26:37;10.00;99.90
22503;DHT22;11418;48.118;9.992;2023-04-23T22:30:37;10.00;99.90
22503;DHT22;11418;48.118;9.992;2023-04-23T22:34:38;10.00;99.90
22503;DHT22;11418;48.118;9.992;2023-04-23T22:38:38;10.00;99.90
22503;DHT22;11418;48.118;9.992;2023-04-23T22:42:39;10.00;99.90
22503;DHT22;11418;48.118;9.992;2023-04-23T22:46:39;10.00;99.90
22503;DHT22;11418;48.118;9.992;2023-04-23T22:50:40;10.00;99.90
22503;DHT22;11418;48.118;9.992;2023-04-23T22:54:41;10.00;99.90
22503;DHT22;11418;48.118;9.992;2023-04-23T22:58:42;10.00;99.90
22503;DHT22;11418;48.118;9.992;2023-04-23T23:02:42;10.00;99.90
22503;DHT22;11418;48.118;9.992;2023-04-23T23:06:43;10.00;99.90
22503;DHT22;11418;48.118;9.992;2023-04-23T23:10:45;9.90;99.90
22503;DHT22;11418;48.118;9.992;2023-04-23T23:14:45;9.90;99.90
22503;DHT22;11418;48.118;9.992;2023-04-23T23:18:46;9.80;99.90
22503;DHT22;11418;48.118;9.992;2023-04-23T23:22:46;9.90;99.90
22503;DHT22;11418;48.118;9.992;2023-04-23T23:26:47;9.80;99.90
22503;DHT22;11418;48.118;9.992;2023-04-23T23:30:47;9.70;99.90
22503;DHT22;11418;48.118;9.992;2023-04-23T23:34:48;9.70;99.90
22503;DHT22;11418;48.118;9.992;2023-04-23T23:38:49;9.70;99.90
22503;DHT22;11418;48.118;9.992;2023-04-23T23:42:50;9.80;99.90
22503;DHT22;11418;48.118;9.992;2023-04-23T23:46:50;9.70;99.90
22503;DHT22;11418;48.118;9.992;2023-04-23T23:50:51;9.70;99.90
22503;DHT22;11418;48.118;9.992;2023-04-23T23:54:51;9.80;99.90
22503;DHT22;11418;48.118;9.992;2023-04-23T23:58:52;9.80;99.90
